Time;durP1;ratioP1;P1;durP2;ratioP2;P2;SDS_P1;SDS_P2;PMS_P1;PMS_P2;Temp;Humidity;BMP_temperature;BMP_pressure;BME280_temperature;BME280_humidity;BME280_pressure;Samples;Min_cycle;Max_cycle;Signal;HPM_P1;HPM_P2
2023/06/09 00:00:19;;;;;;;24.80;9.55;;;12.80;99.90;;;;;;5029905;28;20051;-60
2023/06/09 00:02:50;;;;;;;25.58;8.90;;;12.80;99.90;;;;;;5044336;28;20108;-60
2023/06/09 00:05:18;;;;;;;22.30;8.15;;;12.80;99.90;;;;;;5022572;28;20049;-59
2023/06/09 00:07:47;;;;;;;20.45;6.90;;;12.80;99.90;;;;;;5026345;28;20045;-60
2023/06/09 00:10:14;;;;;;;19.77;7.40;;;12.80;99.90;;;;;;5043251;28;20128;-60
2023/06/09 00:12:40;;;;;;;23.92;8.55;;;12.80;99.90;;;;;;5025555;28;20041;-60
2023/06/09 00:15:09;;;;;;;18.52;7.00;;;12.70;99.90;;;;;;5022512;28;20051;-59
2023/06/09 00:17:38;;;;;;;22.35;8.00;;;12.80;99.90;;;;;;5033217;28;20177;-60
2023/06/09 00:20:04;;;;;;;21.60;7.85;;;12.80;99.90;;;;;;5030283;28;20045;-60
2023/06/09 00:22:31;;;;;;;26.08;8.23;;;12.80;99.90;;;;;;5042867;28;20431;-60
2023/06/09 00:24:57;;;;;;;21.17;8.57;;;12.80;99.90;;;;;;5025528;28;20095;-60
2023/06/09 00:27:24;;;;;;;19.77;8.20;;;12.80;99.90;;;;;;5025073;28;20049;-60
2023/06/09 00:29:50;;;;;;;20.25;8.27;;;12.70;99.90;;;;;;5047928;28;20025;-60
2023/06/09 00:32:16;;;;;;;18.50;8.40;;;12.80;99.90;;;;;;5030118;28;20395;-60
2023/06/09 00:34:42;;;;;;;20.98;7.85;;;12.70;99.90;;;;;;5040671;28;20098;-60
2023/06/09 00:37:08;;;;;;;22.33;9.25;;;12.70;99.90;;;;;;5051748;28;20045;-60
2023/06/09 00:39:33;;;;;;;19.23;8.07;;;12.70;99.90;;;;;;5027250;28;20454;-60
2023/06/09 00:41:59;;;;;;;19.52;8.80;;;12.60;99.90;;;;;;5025109;28;20033;-60
2023/06/09 00:44:25;;;;;;;18.88;7.97;;;12.60;99.90;;;;;;5037382;28;20436;-60
2023/06/09 00:46:51;;;;;;;19.70;7.97;;;12.70;99.90;;;;;;5035522;28;20052;-60
2023/06/09 00:49:17;;;;;;;17.52;8.10;;;12.70;99.90;;;;;;5048893;28;20045;-60
2023/06/09 00:51:43;;;;;;;22.67;8.52;;;12.70;99.90;;;;;;5029695;28;20115;-60
2023/06/09 00:54:10;;;;;;;20.60;7.75;;;12.70;99.90;;;;;;5028040;28;20510;-60
2023/06/09 00:56:36;;;;;;;23.63;8.52;;;12.70;99.90;;;;;;5000222;28;20094;-60
2023/06/09 00:59:02;;;;;;;19.67;8.55;;;12.70;99.90;;;;;;5025309;28;20049;-59
2023/06/09 01:01:32;;;;;;;18.23;8.07;;;12.70;99.90;;;;;;5044417;28;20040;-60
2023/06/09 01:03:59;;;;;;;20.40;7.53;;;12.70;99.90;;;;;;5027996;28;20037;-60
2023/06/09 01:06:40;;;;;;;23.65;8.90;;;12.70;99.90;;;;;;5027752;28;20041;-60
2023/06/09 01:09:13;;;;;;;20.40;7.78;;;12.60;99.90;;;;;;5025986;28;20041;-59
2023/06/09 01:12:05;;;;;;;16.37;7.37;;;12.60;99.90;;;;;;5033375;28;20048;-60
2023/06/09 01:14:56;;;;;;;15.45;6.80;;;12.60;99.90;;;;;;5007071;28;20329;-60
2023/06/09 01:17:23;;;;;;;17.80;7.57;;;12.60;99.90;;;;;;5026134;28;20053;-60
2023/06/09 01:19:54;;;;;;;20.88;7.55;;;12.60;99.90;;;;;;5026862;28;20063;-60
2023/06/09 01:22:55;;;;;;;16.23;6.13;;;12.60;99.90;;;;;;5027378;28;20527;-59
2023/06/09 01:25:31;;;;;;;19.67;6.43;;;12.70;99.90;;;;;;5035542;28;20040;-61
2023/06/09 01:28:00;;;;;;;20.75;7.50;;;12.70;99.90;;;;;;5030900;28;20403;-60
2023/06/09 01:30:29;;;;;;;15.10;7.43;;;12.70;99.90;;;;;;5022914;28;20119;-60
2023/06/09 01:32:58;;;;;;;20.30;6.57;;;12.70;99.90;;;;;;5025446;28;20056;-61
2023/06/09 01:35:24;;;;;;;21.90;7.00;;;12.70;99.90;;;;;;5045550;28;20103;-61
2023/06/09 01:37:52;;;;;;;16.65;5.88;;;12.80;99.90;;;;;;5036669;28;20132;-61
2023/06/09 01:40:19;;;;;;;13.95;5.60;;;12.80;99.90;;;;;;5045410;28;20045;-60
2023/06/09 01:42:45;;;;;;;17.65;6.75;;;12.80;99.90;;;;;;5054985;28;20098;-60
2023/06/09 01:45:11;;;;;;;20.90;7.07;;;12.80;99.90;;;;;;5015844;28;20048;-61
2023/06/09 01:47:37;;;;;;;20.95;6.80;;;12.70;99.90;;;;;;5049715;28;20049;-60
2023/06/09 01:50:06;;;;;;;13.50;6.38;;;12.70;99.90;;;;;;5031956;28;20521;-60
2023/06/09 01:52:34;;;;;;;14.02;6.80;;;12.70;99.90;;;;;;5035580;28;20076;-61
2023/06/09 01:55:09;;;;;;;18.88;7.47;;;12.70;99.90;;;;;;5034255;28;20033;-60
2023/06/09 01:58:09;;;;;;;20.25;7.60;;;12.70;99.90;;;;;;5027179;28;20041;-60
2023/06/09 02:00:36;;;;;;;18.60;7.03;;;12.70;99.90;;;;;;5017446;28;20067;-60
2023/06/09 02:03:05;;;;;;;15.40;7.13;;;12.70;99.90;;;;;;5012410;28;20045;-61
2023/06/09 02:05:33;;;;;;;23.92;7.60;;;12.70;99.90;;;;;;5036188;28;20559;-60
2023/06/09 02:08:00;;;;;;;21.50;7.60;;;12.70;99.90;;;;;;5051409;28;20040;-60
2023/06/09 02:10:26;;;;;;;16.60;7.03;;;12.70;99.90;;;;;;5015978;28;20048;-59
2023/06/09 02:12:52;;;;;;;16.80;7.50;;;12.70;99.90;;;;;;5022492;28;20692;-60
2023/06/09 02:15:19;;;;;;;22.67;8.57;;;12.70;99.90;;;;;;5037706;28;20044;-61
2023/06/09 02:17:45;;;;;;;20.70;7.82;;;12.70;99.90;;;;;;5036988;28;20050;-61
2023/06/09 02:20:11;;;;;;;19.85;7.85;;;12.70;99.90;;;;;;5029238;28;20041;-60
2023/06/09 02:22:37;;;;;;;37.55;9.82;;;12.70;99.90;;;;;;5033684;28;20040;-61
2023/06/09 02:25:04;;;;;;;14.60;7.88;;;12.60;99.90;;;;;;5032121;28;20045;-61
2023/06/09 02:27:30;;;;;;;22.02;8.93;;;12.70;99.90;;;;;;5029586;28;20132;-61
2023/06/09 02:29:56;;;;;;;23.25;8.48;;;12.70;99.90;;;;;;5025856;28;20107;-59
2023/06/09 02:32:22;;;;;;;19.40;8.68;;;12.70;99.90;;;;;;5047704;28;20052;-61
2023/06/09 02:34:48;;;;;;;20.73;8.65;;;12.70;99.90;;;;;;5013964;28;20080;-60
2023/06/09 02:37:14;;;;;;;21.23;8.52;;;12.70;99.90;;;;;;5022719;28;20052;-60
2023/06/09 02:39:41;;;;;;;21.42;8.52;;;12.70;99.90;;;;;;5046031;28;20037;-61
2023/06/09 02:42:07;;;;;;;30.42;9.18;;;12.70;99.90;;;;;;5043785;28;20068;-61
2023/06/09 02:44:36;;;;;;;24.67;9.13;;;12.70;99.90;;;;;;5037375;28;20072;-61
2023/06/09 02:47:04;;;;;;;20.40;9.45;;;12.70;99.90;;;;;;5018312;28;20522;-61
2023/06/09 02:49:29;;;;;;;27.13;9.23;;;12.70;99.90;;;;;;5045051;28;20086;-61
2023/06/09 02:51:55;;;;;;;19.45;9.95;;;12.70;99.90;;;;;;5003560;28;20051;-61
2023/06/09 02:54:21;;;;;;;20.02;10.13;;;12.60;99.90;;;;;;5028829;28;20118;-61
2023/06/09 02:56:46;;;;;;;25.67;10.95;;;12.60;99.90;;;;;;5032490;28;20048;-60
2023/06/09 02:59:12;;;;;;;21.67;11.30;;;12.60;99.90;;;;;;5002390;28;20036;-60
2023/06/09 03:01:39;;;;;;;26.45;10.18;;;12.60;99.90;;;;;;5028566;28;20557;-59
2023/06/09 03:04:05;;;;;;;21.60;10.98;;;12.60;99.90;;;;;;5024618;28;20080;-60
2023/06/09 03:06:36;;;;;;;23.70;11.63;;;12.60;99.90;;;;;;5010929;28;20101;-60
2023/06/09 03:09:02;;;;;;;26.70;11.98;;;12.70;99.90;;;;;;5060302;28;20504;-61
2023/06/09 03:11:29;;;;;;;24.73;10.80;;;12.70;99.90;;;;;;5034339;28;20085;-59
2023/06/09 03:13:55;;;;;;;24.45;11.18;;;12.70;99.90;;;;;;5044401;28;20044;-60
2023/06/09 03:16:21;;;;;;;22.00;9.88;;;12.70;99.90;;;;;;5037113;28;20195;-61
2023/06/09 03:18:47;;;;;;;24.17;10.15;;;12.70;99.90;;;;;;5009362;28;20086;-60
2023/06/09 03:21:13;;;;;;;29.50;11.75;;;12.70;99.90;;;;;;5025531;28;20289;-59
2023/06/09 03:23:40;;;;;;;30.02;11.73;;;12.70;99.90;;;;;;5017425;28;20033;-60
2023/06/09 03:26:07;;;;;;;21.00;10.15;;;12.70;99.90;;;;;;5015534;28;20360;-60
2023/06/09 03:28:33;;;;;;;21.42;10.75;;;12.60;99.90;;;;;;5032141;28;20618;-60
2023/06/09 03:30:58;;;;;;;22.80;10.18;;;12.60;99.90;;;;;;5014033;28;20108;-59
2023/06/09 03:33:25;;;;;;;24.50;10.80;;;12.60;99.90;;;;;;5021731;28;20072;-61
2023/06/09 03:35:51;;;;;;;19.42;10.05;;;12.60;99.90;;;;;;5036046;28;20083;-61
2023/06/09 03:38:17;;;;;;;21.35;9.95;;;12.60;99.90;;;;;;5053664;28;20057;-61
2023/06/09 03:40:43;;;;;;;23.88;9.60;;;12.60;99.90;;;;;;5011703;28;20124;-60
2023/06/09 03:43:10;;;;;;;25.48;10.07;;;12.60;99.90;;;;;;5033499;28;20124;-60
2023/06/09 03:45:37;;;;;;;21.05;9.98;;;12.60;99.90;;;;;;5061704;28;20040;-60
2023/06/09 03:48:05;;;;;;;22.90;9.98;;;12.60;99.90;;;;;;4995850;28;20342;-60
2023/06/09 03:50:31;;;;;;;21.13;10.07;;;12.60;99.90;;;;;;5037684;28;20094;-60
2023/06/09 03:52:56;;;;;;;25.23;10.30;;;12.60;99.90;;;;;;5026029;28;20029;-61
2023/06/09 03:55:22;;;;;;;24.83;9.50;;;12.60;99.90;;;;;;5031813;28;20446;-61
2023/06/09 03:57:48;;;;;;;22.52;9.77;;;12.70;99.90;;;;;;5026815;28;20040;-61
2023/06/09 04:00:15;;;;;;;23.67;10.13;;;12.70;99.90;;;;;;5013486;28;20525;-61
2023/06/09 04:02:41;;;;;;;24.75;10.50;;;12.60;99.90;;;;;;5030128;28;20071;-60
2023/06/09 04:05:07;;;;;;;23.50;9.70;;;12.60;99.90;;;;;;4998807;28;20128;-61
2023/06/09 04:07:33;;;;;;;17.65;9.95;;;12.60;99.90;;;;;;5032347;28;20093;-60
2023/06/09 04:09:59;;;;;;;21.52;10.35;;;12.60;99.90;;;;;;5028202;28;20056;-60
2023/06/09 04:12:25;;;;;;;23.00;9.65;;;12.60;99.90;;;;;;5026772;28;20496;-61
2023/06/09 04:14:51;;;;;;;24.85;9.55;;;12.60;99.90;;;;;;5039715;28;20045;-61
2023/06/09 04:17:17;;;;;;;21.67;9.25;;;12.60;99.90;;;;;;5011686;28;20080;-60
2023/06/09 04:19:42;;;;;;;20.33;10.05;;;12.60;99.90;;;;;;5024465;28;20135;-61
2023/06/09 04:22:10;;;;;;;22.75;10.02;;;12.60;99.90;;;;;;5039383;28;21040;-60
2023/06/09 04:24:36;;;;;;;21.88;10.45;;;12.60;99.90;;;;;;5039685;28;20044;-60
2023/06/09 04:27:03;;;;;;;21.05;9.18;;;12.60;99.90;;;;;;5012168;28;20049;-60
2023/06/09 04:29:33;;;;;;;24.45;9.70;;;12.70;99.90;;;;;;5037427;28;20052;-60
2023/06/09 04:32:00;;;;;;;22.63;9.63;;;12.70;99.90;;;;;;5024081;28;20076;-60
2023/06/09 04:34:26;;;;;;;25.48;9.48;;;12.70;99.90;;;;;;5009937;28;20045;-60
2023/06/09 04:36:56;;;;;;;24.10;10.68;;;12.70;99.90;;;;;;5013438;28;20484;-61
2023/06/09 04:39:25;;;;;;;23.83;10.40;;;12.70;99.90;;;;;;5000005;28;20037;-61
2023/06/09 04:41:54;;;;;;;22.85;9.43;;;12.80;99.90;;;;;;5028315;28;20045;-61
2023/06/09 04:44:21;;;;;;;20.52;9.48;;;12.80;99.90;;;;;;5030754;28;20235;-61
2023/06/09 04:46:49;;;;;;;20.92;10.00;;;12.80;99.90;;;;;;5032786;28;20087;-61
2023/06/09 04:49:15;;;;;;;21.65;10.70;;;12.90;99.90;;;;;;5000806;28;20048;-61
2023/06/09 04:51:46;;;;;;;19.38;10.35;;;12.90;99.90;;;;;;5031494;28;20056;-61
2023/06/09 04:54:25;;;;;;;24.42;9.68;;;13.00;99.90;;;;;;5019976;28;20049;-60
2023/06/09 04:56:57;;;;;;;25.65;11.20;;;13.00;99.90;;;;;;5031633;28;20265;-61
2023/06/09 04:59:24;;;;;;;24.52;11.52;;;13.10;99.90;;;;;;5026984;28;20059;-60
2023/06/09 05:01:51;;;;;;;23.15;10.77;;;13.10;99.90;;;;;;5023258;28;20036;-61
2023/06/09 05:04:17;;;;;;;23.13;11.68;;;13.10;99.90;;;;;;5031185;28;20041;-61
2023/06/09 05:06:43;;;;;;;25.45;11.88;;;13.20;99.90;;;;;;5031110;28;20067;-61
2023/06/09 05:09:09;;;;;;;22.98;11.27;;;13.30;99.90;;;;;;5030715;28;20037;-61
2023/06/09 05:11:36;;;;;;;24.48;11.75;;;13.30;99.90;;;;;;5028916;28;20041;-61
2023/06/09 05:14:02;;;;;;;22.33;11.07;;;13.40;99.90;;;;;;5029127;28;20053;-61
2023/06/09 05:16:28;;;;;;;25.20;11.73;;;13.40;99.90;;;;;;5028230;28;20068;-60
2023/06/09 05:18:57;;;;;;;26.58;11.65;;;13.50;99.90;;;;;;5031101;28;20084;-61
2023/06/09 05:21:26;;;;;;;29.25;11.93;;;13.60;99.90;;;;;;5030192;28;20098;-61
2023/06/09 05:23:52;;;;;;;22.85;10.80;;;13.60;99.90;;;;;;5043922;28;20136;-62
2023/06/09 05:26:18;;;;;;;22.55;9.85;;;13.70;99.90;;;;;;5025903;28;20108;-62
2023/06/09 05:28:45;;;;;;;20.58;9.52;;;13.80;99.90;;;;;;5023088;28;20153;-62
2023/06/09 05:31:14;;;;;;;20.13;9.23;;;13.80;99.90;;;;;;5046013;28;20041;-62
2023/06/09 05:33:40;;;;;;;18.25;8.63;;;13.90;99.90;;;;;;5031355;28;20037;-61
2023/06/09 05:36:06;;;;;;;19.80;8.45;;;14.00;99.90;;;;;;5027920;28;20672;-61
2023/06/09 05:38:32;;;;;;;18.65;7.82;;;14.00;99.90;;;;;;5027688;28;20036;-60
2023/06/09 05:40:58;;;;;;;20.42;8.63;;;14.10;99.90;;;;;;5031612;28;20044;-61
2023/06/09 05:43:27;;;;;;;22.05;8.80;;;14.20;99.90;;;;;;5016188;28;20041;-62
2023/06/09 05:45:54;;;;;;;15.90;8.20;;;14.20;99.90;;;;;;5028722;28;20479;-62
2023/06/09 05:48:19;;;;;;;18.25;8.00;;;14.30;99.90;;;;;;5030061;28;20087;-61
2023/06/09 05:50:48;;;;;;;18.40;7.57;;;14.30;99.90;;;;;;5021905;28;20072;-62
2023/06/09 05:53:17;;;;;;;21.58;9.55;;;14.40;99.90;;;;;;5025219;28;20504;-61
2023/06/09 05:55:47;;;;;;;24.08;7.70;;;14.50;99.90;;;;;;5021643;28;20116;-61
2023/06/09 05:58:17;;;;;;;18.85;8.00;;;14.60;99.90;;;;;;5014882;28;20408;-61
2023/06/09 06:00:44;;;;;;;19.48;8.38;;;14.60;99.90;;;;;;5027469;28;20148;-62
2023/06/09 06:03:11;;;;;;;15.73;6.75;;;14.60;99.90;;;;;;5027026;28;20083;-61
2023/06/09 06:05:40;;;;;;;15.18;6.63;;;14.80;99.90;;;;;;5051574;28;20041;-61
2023/06/09 06:08:06;;;;;;;18.00;8.13;;;14.80;99.90;;;;;;5038842;28;20041;-62
2023/06/09 06:10:32;;;;;;;16.20;7.85;;;14.90;99.90;;;;;;5026498;28;20151;-62
2023/06/09 06:13:01;;;;;;;19.35;7.80;;;15.00;99.90;;;;;;5035096;28;20149;-62
2023/06/09 06:15:27;;;;;;;18.67;7.35;;;15.00;99.90;;;;;;5022352;28;20059;-62
2023/06/09 06:17:52;;;;;;;17.67;7.50;;;15.20;99.90;;;;;;5026130;28;20407;-61
2023/06/09 06:20:18;;;;;;;16.35;7.18;;;15.30;99.90;;;;;;5023631;28;20087;-62
2023/06/09 06:22:44;;;;;;;15.50;7.53;;;15.40;99.90;;;;;;4991285;28;20124;-62
2023/06/09 06:25:13;;;;;;;18.30;7.00;;;15.40;99.90;;;;;;5029407;28;20033;-62
2023/06/09 06:27:40;;;;;;;20.30;8.27;;;15.50;99.90;;;;;;5028790;28;20036;-62
2023/06/09 06:30:08;;;;;;;20.38;7.10;;;15.60;99.90;;;;;;5032506;28;20060;-62
2023/06/09 06:32:35;;;;;;;17.25;7.15;;;15.70;99.90;;;;;;5012657;28;20036;-63
2023/06/09 06:35:01;;;;;;;20.13;7.32;;;15.80;99.90;;;;;;5028955;28;20045;-62
2023/06/09 06:37:28;;;;;;;16.35;7.78;;;15.80;99.90;;;;;;5033360;28;20041;-62
2023/06/09 06:39:54;;;;;;;17.55;7.55;;;16.00;99.90;;;;;;5017785;28;20041;-61
2023/06/09 06:42:20;;;;;;;16.52;8.70;;;16.10;99.90;;;;;;5043611;28;20087;-62
2023/06/09 06:44:46;;;;;;;21.50;8.00;;;16.10;99.90;;;;;;5028540;28;20511;-62
2023/06/09 06:47:12;;;;;;;15.48;7.18;;;16.20;99.90;;;;;;5035516;28;20526;-62
2023/06/09 06:49:37;;;;;;;16.08;6.75;;;16.30;99.90;;;;;;5027285;28;20492;-61
2023/06/09 06:52:03;;;;;;;14.07;6.45;;;16.40;99.90;;;;;;5045254;28;20049;-61
2023/06/09 06:54:29;;;;;;;13.88;7.25;;;16.50;99.90;;;;;;5050700;28;20494;-62
2023/06/09 06:56:55;;;;;;;21.23;7.88;;;16.60;99.90;;;;;;5023627;28;20126;-62
2023/06/09 06:59:20;;;;;;;20.05;8.05;;;16.60;99.90;;;;;;5040294;28;20046;-62
2023/06/09 07:01:46;;;;;;;21.45;7.72;;;16.60;99.90;;;;;;5022570;28;20396;-61
2023/06/09 07:04:12;;;;;;;21.17;7.47;;;16.70;99.90;;;;;;5025074;28;20108;-62
2023/06/09 07:06:38;;;;;;;19.63;8.40;;;16.80;99.90;;;;;;5058559;28;20036;-62
2023/06/09 07:09:04;;;;;;;18.08;7.15;;;16.80;99.90;;;;;;4995533;28;20045;-62
2023/06/09 07:11:32;;;;;;;19.02;6.90;;;16.90;99.90;;;;;;5022547;28;20133;-62
2023/06/09 07:13:58;;;;;;;18.13;7.10;;;17.00;99.90;;;;;;5048076;28;20049;-62
2023/06/09 07:16:24;;;;;;;18.30;7.80;;;17.10;99.90;;;;;;5043338;28;20037;-63
2023/06/09 07:18:50;;;;;;;20.45;7.63;;;17.30;99.90;;;;;;5038369;28;20067;-62
2023/06/09 07:21:16;;;;;;;22.13;7.40;;;17.40;99.90;;;;;;5026835;28;20495;-62
2023/06/09 07:23:41;;;;;;;20.60;7.30;;;17.50;99.90;;;;;;5010417;28;20120;-62
2023/06/09 07:26:07;;;;;;;18.67;6.90;;;17.60;99.90;;;;;;5011967;28;20045;-61
2023/06/09 07:28:33;;;;;;;15.43;6.90;;;17.60;99.90;;;;;;5032449;28;20041;-62
2023/06/09 07:30:59;;;;;;;13.02;6.72;;;17.70;99.90;;;;;;5014702;28;20041;-62
2023/06/09 07:33:24;;;;;;;16.50;6.30;;;17.80;99.90;;;;;;5011675;28;20043;-62
2023/06/09 07:35:52;;;;;;;13.23;6.53;;;17.90;99.90;;;;;;5009057;28;20033;-61
2023/06/09 07:38:18;;;;;;;20.67;7.50;;;18.00;99.90;;;;;;5028969;28;20049;-61
2023/06/09 07:40:44;;;;;;;16.13;6.90;;;18.10;99.90;;;;;;5014314;28;20087;-61
2023/06/09 07:43:09;;;;;;;17.17;7.03;;;18.10;99.90;;;;;;4997511;28;20292;-62
2023/06/09 07:45:35;;;;;;;17.25;6.75;;;18.20;99.90;;;;;;5010512;28;20036;-62
2023/06/09 07:48:01;;;;;;;22.98;7.65;;;18.30;99.90;;;;;;4992150;28;20052;-61
2023/06/09 07:50:27;;;;;;;14.60;6.78;;;18.50;99.90;;;;;;5013416;28;20397;-61
2023/06/09 07:52:52;;;;;;;16.60;6.70;;;18.60;99.90;;;;;;4994805;28;20043;-63
2023/06/09 07:55:18;;;;;;;16.10;7.45;;;18.70;99.90;;;;;;5025888;28;20045;-62
2023/06/09 07:57:45;;;;;;;17.30;6.95;;;18.80;99.90;;;;;;5026846;28;20608;-61
2023/06/09 08:00:13;;;;;;;16.88;6.97;;;18.80;99.90;;;;;;4993339;28;20048;-60
2023/06/09 08:02:42;;;;;;;16.83;6.90;;;18.80;99.90;;;;;;5028107;28;20066;-62
2023/06/09 08:05:08;;;;;;;17.10;6.80;;;18.90;99.90;;;;;;5018173;28;20029;-59
2023/06/09 08:07:35;;;;;;;11.77;6.35;;;19.00;99.90;;;;;;5001045;28;20040;-60
2023/06/09 08:10:01;;;;;;;25.55;9.32;;;19.10;99.90;;;;;;5026063;28;20531;-58
2023/06/09 08:12:27;;;;;;;17.05;7.35;;;19.20;99.90;;;;;;5006303;28;20033;-59
2023/06/09 08:14:53;;;;;;;13.77;6.53;;;19.30;99.90;;;;;;5028046;28;20048;-61
2023/06/09 08:17:18;;;;;;;12.77;6.25;;;19.50;99.90;;;;;;5056667;28;20758;-61
2023/06/09 08:19:44;;;;;;;18.33;7.18;;;19.60;99.90;;;;;;5040710;28;20044;-58
2023/06/09 08:22:10;;;;;;;16.70;6.65;;;19.60;99.90;;;;;;5023658;28;20419;-61
2023/06/09 08:24:36;;;;;;;21.30;6.70;;;19.70;99.90;;;;;;5024998;28;20106;-61
2023/06/09 08:27:02;;;;;;;18.10;7.22;;;19.80;99.90;;;;;;5045096;28;20456;-59
2023/06/09 08:29:28;;;;;;;12.07;6.20;;;19.90;99.90;;;;;;5045671;28;20177;-61
2023/06/09 08:31:54;;;;;;;17.60;7.32;;;20.00;99.90;;;;;;5024540;28;20116;-61
2023/06/09 08:34:19;;;;;;;14.38;6.43;;;20.20;99.90;;;;;;5005905;28;20042;-62
2023/06/09 08:36:45;;;;;;;17.98;7.53;;;20.30;99.90;;;;;;5032240;28;20049;-64
2023/06/09 08:39:11;;;;;;;18.38;6.60;;;20.30;99.90;;;;;;5027120;28;20514;-60
2023/06/09 08:41:41;;;;;;;20.10;6.95;;;20.40;99.90;;;;;;5005827;28;20034;-59
2023/06/09 08:44:07;;;;;;;14.45;6.95;;;20.50;99.90;;;;;;5062968;28;20037;-59
2023/06/09 08:46:36;;;;;;;14.60;6.22;;;20.60;99.90;;;;;;5027479;28;20067;-59
2023/06/09 08:49:02;;;;;;;16.42;6.63;;;20.70;99.90;;;;;;5034582;28;20597;-61
2023/06/09 08:51:28;;;;;;;14.80;6.90;;;20.80;99.90;;;;;;5027020;28;20044;-61
2023/06/09 08:53:55;;;;;;;15.27;6.55;;;21.00;99.90;;;;;;5042211;28;20124;-61
2023/06/09 08:56:22;;;;;;;15.68;6.72;;;21.10;99.90;;;;;;5044440;28;20107;-62
2023/06/09 08:58:50;;;;;;;20.38;6.65;;;21.20;99.90;;;;;;5028618;28;20084;-60
2023/06/09 09:01:19;;;;;;;12.15;6.45;;;21.20;99.90;;;;;;5025861;28;20602;-60
2023/06/09 09:03:48;;;;;;;16.10;6.28;;;21.20;99.90;;;;;;5018539;28;20041;-62
2023/06/09 09:06:15;;;;;;;11.75;6.75;;;21.30;99.90;;;;;;5045867;28;20345;-61
2023/06/09 09:08:41;;;;;;;17.23;6.93;;;21.50;99.90;;;;;;5017355;28;20091;-62
2023/06/09 09:11:07;;;;;;;15.07;7.15;;;21.70;99.90;;;;;;5007415;28;20033;-61
2023/06/09 09:13:32;;;;;;;12.77;6.22;;;21.80;99.90;;;;;;5032582;28;20041;-61
2023/06/09 09:15:59;;;;;;;15.38;6.15;;;21.90;99.90;;;;;;5016549;28;20048;-62
2023/06/09 09:18:34;;;;;;;17.10;6.35;;;21.90;99.90;;;;;;5022814;28;20037;-62
2023/06/09 09:21:01;;;;;;;16.05;6.40;;;22.10;99.90;;;;;;5043463;28;20392;-61
2023/06/09 09:23:31;;;;;;;14.65;7.15;;;22.30;99.90;;;;;;5024537;28;20043;-62
2023/06/09 09:26:01;;;;;;;12.38;6.70;;;22.30;99.90;;;;;;5034495;28;20041;-63
2023/06/09 09:28:41;;;;;;;14.35;6.68;;;22.30;99.90;;;;;;5004797;28;20045;-62
2023/06/09 09:31:11;;;;;;;11.77;5.95;;;22.40;99.90;;;;;;5026281;28;20696;-62
2023/06/09 09:33:45;;;;;;;13.68;6.63;;;22.40;99.90;;;;;;5023769;28;20060;-63
2023/06/09 09:36:10;;;;;;;13.85;6.30;;;22.60;99.90;;;;;;4997399;28;20504;-62
2023/06/09 09:38:36;;;;;;;16.33;6.32;;;22.70;99.90;;;;;;5023481;28;20090;-62
2023/06/09 09:41:07;;;;;;;11.55;6.45;;;22.90;99.90;;;;;;5010639;28;20045;-62
2023/06/09 09:43:33;;;;;;;13.10;6.00;;;23.00;99.90;;;;;;5031773;28;20100;-61
2023/06/09 09:46:04;;;;;;;20.80;6.57;;;23.10;99.90;;;;;;5047264;28;20354;-62
2023/06/09 09:48:30;;;;;;;14.35;6.20;;;23.20;99.90;;;;;;5033521;28;20369;-62
2023/06/09 09:50:56;;;;;;;13.40;6.45;;;23.10;99.70;;;;;;5033778;28;20043;-62
2023/06/09 09:53:23;;;;;;;13.43;6.15;;;23.10;98.80;;;;;;4998911;28;20040;-62
2023/06/09 09:55:52;;;;;;;17.10;6.43;;;23.10;99.60;;;;;;5060448;28;20428;-62
2023/06/09 09:58:18;;;;;;;14.07;6.72;;;23.30;99.10;;;;;;5030800;28;20036;-62
2023/06/09 10:00:46;;;;;;;16.63;5.40;;;23.40;98.90;;;;;;5006989;28;20564;-61
2023/06/09 10:03:19;;;;;;;15.88;6.32;;;23.70;99.00;;;;;;5027128;28;20112;-61
2023/06/09 10:05:49;;;;;;;15.05;6.53;;;23.80;98.70;;;;;;5029137;28;20064;-62
2023/06/09 10:08:22;;;;;;;15.57;6.65;;;23.90;98.20;;;;;;5029064;28;20047;-62
2023/06/09 10:10:50;;;;;;;13.43;6.37;;;24.00;98.30;;;;;;5027858;28;20080;-62
2023/06/09 10:13:15;;;;;;;13.32;5.90;;;24.20;98.10;;;;;;5002883;28;20075;-62
2023/06/09 10:15:43;;;;;;;15.32;6.72;;;24.20;97.70;;;;;;5025363;28;20139;-61
2023/06/09 10:18:10;;;;;;;14.98;5.65;;;24.20;97.70;;;;;;5020273;28;20045;-61
2023/06/09 10:20:36;;;;;;;16.35;6.03;;;24.50;97.90;;;;;;5045050;28;20040;-61
2023/06/09 10:23:04;;;;;;;12.10;6.07;;;24.70;97.60;;;;;;5021834;28;20643;-62
2023/06/09 10:25:30;;;;;;;12.45;6.30;;;24.80;97.20;;;;;;5024011;28;20068;-62
2023/06/09 10:27:56;;;;;;;13.18;6.55;;;24.80;96.80;;;;;;5035834;28;20466;-61
2023/06/09 10:30:22;;;;;;;13.30;5.60;;;24.80;96.80;;;;;;4993786;28;20045;-62
2023/06/09 10:32:59;;;;;;;12.05;6.10;;;24.90;96.80;;;;;;5023497;28;20041;-63
2023/06/09 10:35:28;;;;;;;11.13;5.75;;;24.90;96.00;;;;;;5025624;28;20045;-61
2023/06/09 10:37:56;;;;;;;10.10;6.10;;;25.00;96.00;;;;;;5026591;28;20511;-60
2023/06/09 10:40:35;;;;;;;12.20;5.97;;;25.10;96.40;;;;;;5015668;28;20110;-61
2023/06/09 10:43:13;;;;;;;12.77;5.47;;;25.30;95.90;;;;;;5026050;28;20510;-61
2023/06/09 10:45:52;;;;;;;11.27;6.07;;;25.30;95.80;;;;;;5037162;28;20107;-61
2023/06/09 10:48:41;;;;;;;10.75;6.03;;;25.60;95.90;;;;;;5044184;28;20559;-61
2023/06/09 10:51:28;;;;;;;12.93;6.30;;;25.60;95.70;;;;;;5042090;28;20048;-61
2023/06/09 10:54:12;;;;;;;10.73;5.07;;;25.80;95.30;;;;;;5022333;28;20055;-61
2023/06/09 10:56:41;;;;;;;;;;;25.90;95.10;;;;;;5040056;28;20444;-60
2023/06/09 10:59:26;;;;;;;12.10;6.35;;;26.10;94.90;;;;;;5059621;28;20379;-62
2023/06/09 11:02:01;;;;;;;10.82;5.32;;;26.10;94.70;;;;;;5057361;28;20474;-62
2023/06/09 11:04:43;;;;;;;11.75;5.30;;;26.10;94.70;;;;;;5023435;28;20060;-62
2023/06/09 11:07:14;;;;;;;13.00;6.50;;;26.30;94.80;;;;;;5021087;28;20045;-61
2023/06/09 11:10:00;;;;;;;9.20;5.28;;;26.40;94.30;;;;;;5012923;28;20037;-61
2023/06/09 11:12:38;;;;;;;13.73;5.30;;;26.40;94.50;;;;;;5013443;28;20245;-61
2023/06/09 11:15:06;;;;;;;13.40;5.65;;;26.60;94.40;;;;;;5025915;28;20045;-62
2023/06/09 11:17:37;;;;;;;10.88;5.95;;;26.60;94.50;;;;;;5018163;28;20536;-61
2023/06/09 11:20:08;;;;;;;9.73;5.82;;;26.60;93.70;;;;;;4999635;28;20073;-62
2023/06/09 11:22:54;;;;;;;12.90;6.47;;;26.50;93.20;;;;;;5027902;28;20037;-61
2023/06/09 11:25:20;;;;;;;10.38;6.28;;;26.60;93.50;;;;;;5030957;28;20028;-62
2023/06/09 11:27:48;;;;;;;11.68;6.40;;;26.60;93.00;;;;;;5044222;28;20373;-61
2023/06/09 11:30:19;;;;;;;13.65;5.97;;;26.60;93.00;;;;;;5031707;28;20049;-61
2023/06/09 11:33:01;;;;;;;12.15;5.88;;;26.70;93.20;;;;;;5028475;28;20033;-58
2023/06/09 11:35:40;;;;;;;12.30;6.30;;;26.80;93.00;;;;;;5020401;28;20052;-61
2023/06/09 11:38:08;;;;;;;16.20;5.68;;;26.80;92.30;;;;;;5016175;28;20057;-62
2023/06/09 11:40:38;;;;;;;11.27;5.72;;;27.00;93.20;;;;;;5036802;28;20452;-59
2023/06/09 11:43:08;;;;;;;12.00;5.47;;;27.20;92.40;;;;;;5035025;28;20040;-63
2023/06/09 11:45:35;;;;;;;10.15;5.85;;;27.00;92.10;;;;;;5020137;28;20381;-62
2023/06/09 11:48:05;;;;;;;9.32;5.43;;;27.10;91.90;;;;;;5042638;28;20044;-62
2023/06/09 11:50:40;;;;;;;9.35;5.60;;;27.30;92.10;;;;;;5032806;28;20045;-61
2023/06/09 11:53:16;;;;;;;12.40;6.13;;;27.50;91.80;;;;;;5043512;28;20040;-61
2023/06/09 11:55:43;;;;;;;10.15;5.30;;;27.60;91.60;;;;;;5045427;28;20566;-61
2023/06/09 11:58:10;;;;;;;11.68;6.13;;;27.60;91.60;;;;;;5029884;28;20458;-61
2023/06/09 12:00:41;;;;;;;9.75;5.80;;;27.60;90.80;;;;;;5051534;28;20041;-62
2023/06/09 12:03:07;;;;;;;14.35;5.38;;;27.60;91.10;;;;;;5031435;28;20044;-61
2023/06/09 12:06:08;;;;;;;9.32;5.40;;;27.60;91.00;;;;;;5039609;28;20045;-60
2023/06/09 12:08:33;;;;;;;10.68;5.43;;;27.60;91.00;;;;;;5036055;28;20040;-61
2023/06/09 12:11:02;;;;;;;9.30;5.25;;;27.80;91.80;;;;;;5036303;28;20107;-62
2023/06/09 12:13:28;;;;;;;11.48;5.88;;;27.90;91.80;;;;;;5043403;28;20045;-62
2023/06/09 12:15:54;;;;;;;10.77;5.32;;;28.10;92.30;;;;;;5028624;28;20044;-59
2023/06/09 12:18:21;;;;;;;12.02;5.63;;;28.20;92.50;;;;;;5021588;28;20128;-61
2023/06/09 12:20:50;;;;;;;12.25;5.75;;;28.20;92.40;;;;;;5030101;28;20392;-61
2023/06/09 12:23:17;;;;;;;12.25;6.18;;;28.10;93.20;;;;;;5032069;28;20392;-62
2023/06/09 12:25:48;;;;;;;14.63;5.75;;;28.00;93.70;;;;;;5020008;28;20037;-62
2023/06/09 12:28:32;;;;;;;15.32;5.32;;;28.10;94.20;;;;;;5028027;28;20346;-62
2023/06/09 12:31:08;;;;;;;11.70;6.03;;;28.20;94.60;;;;;;5015934;28;20442;-63
2023/06/09 12:33:36;;;;;;;12.45;5.57;;;28.40;94.10;;;;;;5035047;28;20107;-62
2023/06/09 12:36:10;;;;;;;11.30;5.63;;;28.40;94.40;;;;;;5033694;28;20131;-62
2023/06/09 12:38:40;;;;;;;16.08;5.18;;;28.30;94.60;;;;;;5024147;28;20040;-63
2023/06/09 12:41:14;;;;;;;14.02;6.30;;;28.20;94.70;;;;;;5031915;28;20083;-62